createdAt,value
2023-04-11T00:00:50.816Z,98456.41
2023-04-11T00:03:17.593Z,98436.94
2023-04-11T00:05:46.155Z,98423.38
2023-04-11T00:08:12.916Z,98409.00
2023-04-11T00:10:39.496Z,98393.50
2023-04-11T00:13:06.004Z,98383.31
2023-04-11T00:15:32.737Z,98372.00
2023-04-11T00:17:59.345Z,98368.03
2023-04-11T00:20:26.059Z,98372.22
2023-04-11T00:22:54.286Z,98358.97
2023-04-11T00:25:20.932Z,98364.41
2023-04-11T00:27:47.633Z,98358.16
2023-04-11T00:30:14.450Z,98347.66
2023-04-11T00:32:41.284Z,98332.50
2023-04-11T00:35:08.886Z,98329.66
2023-04-11T00:37:35.445Z,98346.63
2023-04-11T00:40:03.704Z,98359.44
2023-04-11T00:42:30.226Z,98366.63
2023-04-11T00:44:56.744Z,98374.31
2023-04-11T00:47:23.494Z,98384.38
2023-04-11T00:49:50.121Z,98396.50
2023-04-11T00:52:16.673Z,98394.78
2023-04-11T00:54:43.422Z,98396.25
2023-04-11T00:57:12.003Z,98410.81
2023-04-11T00:59:38.615Z,98410.25
2023-04-11T01:02:05.332Z,98417.44
2023-04-11T01:04:31.888Z,98429.56
2023-04-11T01:07:00.951Z,98433.41
2023-04-11T01:09:28.615Z,98445.72
2023-04-11T01:11:56.381Z,98446.19
2023-04-11T01:14:25.610Z,98424.69
2023-04-11T01:16:52.910Z,98420.38
2023-04-11T01:19:21.263Z,98436.53
2023-04-11T01:21:49.580Z,98440.91
2023-04-11T01:24:17.569Z,98439.31
2023-04-11T01:26:44.168Z,98438.47
2023-04-11T01:29:11.120Z,98440.28
2023-04-11T01:31:38.260Z,98442.69
2023-04-11T01:34:05.398Z,98451.56
2023-04-11T01:36:32.276Z,98449.22
2023-04-11T01:38:59.165Z,98445.44
2023-04-11T01:41:29.607Z,98452.78
2023-04-11T01:43:56.784Z,98445.63
2023-04-11T01:46:23.632Z,98461.13
2023-04-11T01:48:50.920Z,98454.09
2023-04-11T01:51:17.527Z,98450.59
2023-04-11T01:53:44.124Z,98443.94
2023-04-11T01:56:11.970Z,98438.16
2023-04-11T01:58:40.193Z,98419.16
2023-04-11T02:01:07.142Z,98421.09
2023-04-11T02:03:34.140Z,98404.69
2023-04-11T02:06:00.787Z,98393.38
2023-04-11T02:08:27.481Z,98389.72
2023-04-11T02:10:54.008Z,98392.00
2023-04-11T02:13:20.549Z,98382.59
2023-04-11T02:15:48.448Z,98388.34
2023-04-11T02:18:15.017Z,98383.59
2023-04-11T02:20:41.738Z,98389.69
2023-04-11T02:23:08.348Z,98407.06
2023-04-11T02:25:34.932Z,98412.97
2023-04-11T02:28:01.596Z,98402.72
2023-04-11T02:30:28.480Z,98394.44
2023-04-11T02:32:56.354Z,98394.31
2023-04-11T02:35:23.106Z,98379.03
2023-04-11T02:37:49.663Z,98382.84
2023-04-11T02:40:16.414Z,98375.72
2023-04-11T02:42:43.113Z,98372.53
2023-04-11T02:45:10.910Z,98388.16
2023-04-11T02:47:37.566Z,98398.34
2023-04-11T02:50:06.812Z,98392.78
2023-04-11T02:52:33.560Z,98404.75
2023-04-11T02:55:00.173Z,98403.47
2023-04-11T02:57:26.872Z,98400.78
2023-04-11T02:59:53.407Z,98406.53
2023-04-11T03:02:20.119Z,98415.44
2023-04-11T03:04:46.814Z,98402.69
2023-04-11T03:07:14.681Z,98407.19
2023-04-11T03:09:41.373Z,98425.84
2023-04-11T03:12:07.970Z,98413.53
2023-04-11T03:14:34.665Z,98402.09
2023-04-11T03:17:01.422Z,98402.75
2023-04-11T03:19:28.036Z,98415.06
2023-04-11T03:21:54.590Z,98402.63
2023-04-11T03:24:22.517Z,98399.28
2023-04-11T03:26:49.246Z,98419.72
2023-04-11T03:29:15.813Z,98424.03
2023-04-11T03:31:42.422Z,98430.25
2023-04-11T03:34:08.974Z,98420.56
2023-04-11T03:36:35.532Z,98440.97
2023-04-11T03:39:02.105Z,98419.28
2023-04-11T03:41:30.033Z,98427.44
2023-04-11T03:43:56.733Z,98420.56
2023-04-11T03:46:23.355Z,98409.09
2023-04-11T03:48:50.143Z,98415.16
2023-04-11T03:51:16.705Z,98410.09
2023-04-11T03:53:43.252Z,98399.53
2023-04-11T03:56:10.149Z,98416.13
2023-04-11T03:58:38.244Z,98411.69
2023-04-11T04:01:05.382Z,98417.09
2023-04-11T04:03:32.130Z,98406.91
2023-04-11T04:05:59.046Z,98407.22
2023-04-11T04:08:25.750Z,98404.38
2023-04-11T04:10:52.345Z,98412.38
2023-04-11T04:13:18.876Z,98409.47
2023-04-11T04:15:46.793Z,98401.34
2023-04-11T04:18:13.369Z,98401.22
2023-04-11T04:20:41.687Z,98402.34
2023-04-11T04:23:08.313Z,98384.03
2023-04-11T04:25:35.178Z,98396.16
2023-04-11T04:28:01.776Z,98398.25
2023-04-11T04:30:28.345Z,98408.63
2023-04-11T04:32:57.071Z,98404.97
2023-04-11T04:35:23.675Z,98414.38
2023-04-11T04:37:50.415Z,98402.91
2023-04-11T04:40:17.148Z,98416.13
2023-04-11T04:42:43.878Z,98422.53
2023-04-11T04:45:10.582Z,98415.53
2023-04-11T04:47:37.786Z,98419.34
2023-04-11T04:50:07.096Z,98412.19
2023-04-11T04:52:33.913Z,98419.53
2023-04-11T04:55:00.713Z,98428.63
2023-04-11T04:57:28.202Z,98426.25
2023-04-11T04:59:55.131Z,98450.28
2023-04-11T05:02:22.219Z,98443.44
2023-04-11T05:04:49.111Z,98427.84
2023-04-11T05:07:17.526Z,98435.31
2023-04-11T05:09:44.308Z,98437.69
2023-04-11T05:12:10.840Z,98432.47
2023-04-11T05:14:37.540Z,98434.84
2023-04-11T05:17:04.161Z,98434.69
2023-04-11T05:19:31.017Z,98434.69
2023-04-11T05:21:57.564Z,98441.38
2023-04-11T05:24:25.650Z,98437.88
2023-04-11T05:26:52.391Z,98439.78
2023-04-11T05:29:18.906Z,98441.84
2023-04-11T05:31:45.438Z,98447.88
2023-04-11T05:34:12.196Z,98446.59
2023-04-11T05:36:38.753Z,98444.06
2023-04-11T05:39:05.345Z,98458.69
2023-04-11T05:41:33.645Z,98457.22
2023-04-11T05:44:00.185Z,98458.94
2023-04-11T05:46:26.990Z,98454.16
2023-04-11T05:48:53.611Z,98452.75
2023-04-11T05:51:20.194Z,98457.66
2023-04-11T05:53:46.749Z,98468.13
2023-04-11T05:56:13.507Z,98468.22
2023-04-11T05:58:42.971Z,98467.22
2023-04-11T06:01:09.601Z,98462.56
2023-04-11T06:03:36.310Z,98463.03
2023-04-11T06:06:02.969Z,98469.41
2023-04-11T06:08:29.690Z,98452.38
2023-04-11T06:10:56.286Z,98454.44
2023-04-11T06:13:22.851Z,98459.66
2023-04-11T06:15:51.029Z,98447.53
2023-04-11T06:18:17.618Z,98446.53
2023-04-11T06:20:44.213Z,98449.50
2023-04-11T06:23:10.752Z,98448.53
2023-04-11T06:25:37.344Z,98451.72
2023-04-11T06:28:04.084Z,98454.22
2023-04-11T06:30:30.612Z,98469.50
2023-04-11T06:32:58.756Z,98482.88
2023-04-11T06:35:25.684Z,98487.59
2023-04-11T06:37:52.267Z,98489.41
2023-04-11T06:40:19.725Z,98493.09
2023-04-11T06:42:46.762Z,98487.28
2023-04-11T06:45:13.417Z,98501.63
2023-04-11T06:47:40.218Z,98503.72
2023-04-11T06:50:09.265Z,98502.06
2023-04-11T06:52:37.099Z,98500.69
2023-04-11T06:55:04.617Z,98501.69
2023-04-11T06:57:31.187Z,98496.16
2023-04-11T06:59:57.767Z,98496.47
2023-04-11T07:02:24.760Z,98496.16
2023-04-11T07:04:51.675Z,98492.19
2023-04-11T07:07:19.664Z,98490.53
2023-04-11T07:09:46.188Z,98508.34
2023-04-11T07:12:12.766Z,98504.72
2023-04-11T07:14:39.525Z,98489.59
2023-04-11T07:17:06.088Z,98517.59
2023-04-11T07:19:32.639Z,98507.56
2023-04-11T07:21:59.211Z,98523.81
2023-04-11T07:24:27.154Z,98511.63
2023-04-11T07:26:53.761Z,98529.97
2023-04-11T07:29:20.382Z,98543.78
2023-04-11T07:31:47.163Z,98535.56
2023-04-11T07:34:13.777Z,98558.56
2023-04-11T07:36:40.328Z,98574.22
2023-04-11T07:39:06.897Z,98586.66
2023-04-11T07:41:35.494Z,98583.94
2023-04-11T07:44:02.632Z,98576.91
2023-04-11T07:46:29.256Z,98583.41
2023-04-11T07:48:55.812Z,98578.56
2023-04-11T07:51:22.455Z,98599.38
2023-04-11T07:53:49.216Z,98587.56
2023-04-11T07:56:15.764Z,98585.81
2023-04-11T07:58:43.876Z,98576.06
2023-04-11T08:01:20.023Z,98588.66
2023-04-11T08:03:46.687Z,98586.47
2023-04-11T08:06:13.417Z,98590.22
2023-04-11T08:08:39.968Z,98591.34
2023-04-11T08:11:07.027Z,98595.31
2023-04-11T08:13:33.549Z,98623.25
2023-04-11T08:16:03.642Z,98611.34
2023-04-11T08:18:30.250Z,98612.09
2023-04-11T08:20:56.838Z,98613.56
2023-04-11T08:23:23.364Z,98614.00
2023-04-11T08:25:49.897Z,98603.38
2023-04-11T08:28:16.484Z,98603.09
2023-04-11T08:30:43.074Z,98611.41
2023-04-11T08:33:11.064Z,98603.50
2023-04-11T08:35:37.886Z,98617.97
2023-04-11T08:38:04.408Z,98621.09
2023-04-11T08:40:31.056Z,98611.47
2023-04-11T08:42:59.154Z,98609.69
2023-04-11T08:45:26.135Z,98608.72
2023-04-11T08:47:52.769Z,98605.69
2023-04-11T08:50:20.735Z,98608.75
2023-04-11T08:52:50.535Z,98609.16
2023-04-11T08:55:17.196Z,98621.41
2023-04-11T08:57:43.860Z,98628.69
2023-04-11T09:00:11.430Z,98611.22
2023-04-11T09:02:55.122Z,98612.03
2023-04-11T09:05:26.734Z,98612.31
2023-04-11T09:07:53.477Z,98622.56
2023-04-11T09:10:21.348Z,98623.22
2023-04-11T09:12:48.067Z,98616.50
2023-04-11T09:15:18.580Z,98616.31
2023-04-11T09:17:45.212Z,98621.72
2023-04-11T09:20:17.415Z,98621.34
2023-04-11T09:22:45.509Z,98620.06
2023-04-11T09:25:12.106Z,98623.44
2023-04-11T09:27:38.724Z,98620.16
2023-04-11T09:30:16.769Z,98619.88
2023-04-11T09:32:43.281Z,98626.81
2023-04-11T09:35:11.646Z,98617.47
2023-04-11T09:37:43.002Z,98648.03
2023-04-11T09:40:11.302Z,98637.56
2023-04-11T09:42:37.845Z,98637.69
2023-04-11T09:45:05.450Z,98631.25
2023-04-11T09:47:32.665Z,98640.00
2023-04-11T09:49:59.573Z,98626.22
2023-04-11T09:52:26.559Z,98632.13
2023-04-11T09:54:54.325Z,98628.91
2023-04-11T09:57:23.226Z,98630.44
2023-04-11T09:59:52.512Z,98643.41
2023-04-11T10:02:19.221Z,98631.94
2023-04-11T10:04:45.898Z,98625.94
2023-04-11T10:07:14.000Z,98623.28
2023-04-11T10:09:42.468Z,98618.03
2023-04-11T10:12:09.257Z,98625.69
2023-04-11T10:14:44.350Z,98646.09
2023-04-11T10:17:12.199Z,98622.41
2023-04-11T10:19:38.758Z,98630.34
2023-04-11T10:22:05.352Z,98628.66
2023-04-11T10:24:32.081Z,98619.13
2023-04-11T10:27:00.190Z,98626.44
2023-04-11T10:29:51.772Z,98638.72
2023-04-11T10:32:20.609Z,98634.81
2023-04-11T10:35:21.347Z,98629.38
2023-04-11T10:37:47.862Z,98623.75
2023-04-11T10:40:15.160Z,98628.88
2023-04-11T10:42:42.690Z,98628.94
2023-04-11T10:45:21.485Z,98629.38
2023-04-11T10:48:08.039Z,98629.72
2023-04-11T10:50:41.420Z,98615.97
2023-04-11T10:53:10.572Z,98648.91
2023-04-11T10:55:45.681Z,98638.47
2023-04-11T10:58:13.320Z,98634.13
2023-04-11T11:01:26.453Z,98630.56
2023-04-11T11:04:02.678Z,98642.59
2023-04-11T11:06:29.520Z,98647.81
2023-04-11T11:08:56.191Z,98649.63
2023-04-11T11:11:22.760Z,98645.25
2023-04-11T11:13:50.865Z,98660.09
2023-04-11T11:16:19.810Z,98652.66
2023-04-11T11:18:47.547Z,98650.53
2023-04-11T11:21:20.615Z,98636.72
2023-04-11T11:23:54.842Z,98661.16
2023-04-11T11:26:21.674Z,98646.28
2023-04-11T11:28:48.719Z,98651.06
2023-04-11T11:31:15.287Z,98660.97
2023-04-11T11:33:43.203Z,98684.78
2023-04-11T11:36:11.013Z,98668.81
2023-04-11T11:38:37.641Z,98668.13
2023-04-11T11:41:04.875Z,98678.78
2023-04-11T11:43:35.818Z,98664.53
2023-04-11T11:46:10.665Z,98660.34
2023-04-11T11:48:37.482Z,98665.13
2023-04-11T11:51:06.000Z,98664.34
2023-04-11T11:53:32.920Z,98672.44
2023-04-11T11:55:59.740Z,98669.78
2023-04-11T11:58:26.477Z,98650.75
2023-04-11T12:00:54.719Z,98637.56
2023-04-11T12:03:22.889Z,98636.91
2023-04-11T12:05:49.940Z,98661.47
2023-04-11T12:08:19.658Z,98667.38
2023-04-11T12:10:47.190Z,98665.50
2023-04-11T12:13:15.807Z,98667.41
2023-04-11T12:15:44.759Z,98649.56
2023-04-11T12:18:11.479Z,98649.59
2023-04-11T12:20:38.108Z,98629.34
2023-04-11T12:23:04.679Z,98659.88
2023-04-11T12:25:32.661Z,98649.00
2023-04-11T12:27:59.198Z,98658.84
2023-04-11T12:30:26.788Z,98666.81
2023-04-11T12:32:54.778Z,98653.22
2023-04-11T12:35:21.421Z,98654.34
2023-04-11T12:37:47.928Z,98647.50
2023-04-11T12:40:14.656Z,98639.69
2023-04-11T12:42:55.234Z,98635.53
2023-04-11T12:45:31.987Z,98633.28
2023-04-11T12:47:58.543Z,98639.97
2023-04-11T12:50:25.153Z,98659.09
2023-04-11T12:52:52.101Z,98644.31
2023-04-11T12:55:18.807Z,98651.69
2023-04-11T12:57:46.757Z,98636.06
2023-04-11T13:00:14.677Z,98643.41
2023-04-11T13:02:44.581Z,98649.19
2023-04-11T13:05:12.653Z,98637.06
2023-04-11T13:07:39.371Z,98645.53
2023-04-11T13:10:08.353Z,98651.53
2023-04-11T13:12:35.003Z,98653.53
2023-04-11T13:15:03.148Z,98659.66
2023-04-11T13:17:29.796Z,98654.28
2023-04-11T13:19:56.321Z,98651.34
2023-04-11T13:22:22.960Z,98646.94
2023-04-11T13:24:49.481Z,98647.50
2023-04-11T13:27:16.058Z,98650.97
2023-04-11T13:29:42.622Z,98649.31
2023-04-11T13:32:10.517Z,98654.75
2023-04-11T13:34:37.040Z,98645.09
2023-04-11T13:37:03.607Z,98670.56
2023-04-11T13:39:30.180Z,98646.84
2023-04-11T13:41:56.684Z,98660.47
2023-04-11T13:44:23.209Z,98673.06
2023-04-11T13:46:49.796Z,98647.69
2023-04-11T13:49:17.716Z,98642.72
2023-04-11T13:51:44.269Z,98658.00
2023-04-11T13:54:10.851Z,98671.28
2023-04-11T13:56:38.761Z,98658.91
2023-04-11T13:59:05.269Z,98694.59
2023-04-11T14:01:31.842Z,98678.78
2023-04-11T14:03:58.645Z,98679.56
2023-04-11T14:06:27.061Z,98663.22
2023-04-11T14:08:53.556Z,98670.09
2023-04-11T14:11:20.528Z,98685.34
2023-04-11T14:13:47.118Z,98673.41
2023-04-11T14:16:13.655Z,98679.72
2023-04-11T14:18:40.413Z,98671.53
2023-04-11T14:21:07.502Z,98679.41
2023-04-11T14:23:35.813Z,98674.56
2023-04-11T14:26:02.536Z,98676.44
2023-04-11T14:28:29.085Z,98688.25
2023-04-11T14:30:56.279Z,98687.41
2023-04-11T14:33:23.002Z,98691.94
2023-04-11T14:35:50.265Z,98686.34
2023-04-11T14:38:16.813Z,98673.78
2023-04-11T14:40:44.836Z,98673.22
2023-04-11T14:43:11.415Z,98663.41
2023-04-11T14:45:38.205Z,98670.56
2023-04-11T14:48:05.249Z,98667.97
2023-04-11T14:50:31.911Z,98671.69
2023-04-11T14:52:58.810Z,98669.94
2023-04-11T14:55:25.350Z,98678.94
2023-04-11T14:57:55.097Z,98659.69
2023-04-11T15:00:22.122Z,98666.44
2023-04-11T15:02:52.197Z,98681.16
2023-04-11T15:05:19.784Z,98667.13
2023-04-11T15:07:48.178Z,98672.19
2023-04-11T15:10:16.979Z,98671.72
2023-04-11T15:12:43.557Z,98676.03
2023-04-11T15:15:12.415Z,98670.09
2023-04-11T15:17:40.501Z,98677.31
2023-04-11T15:20:11.317Z,98666.09
2023-04-11T15:22:40.140Z,98671.53
2023-04-11T15:25:10.130Z,98672.50
2023-04-11T15:27:36.722Z,98675.13
2023-04-11T15:30:04.101Z,98687.81
2023-04-11T15:32:32.084Z,98688.44
2023-04-11T15:34:58.921Z,98681.34
2023-04-11T15:37:25.861Z,98681.34
2023-04-11T15:39:52.652Z,98684.16
2023-04-11T15:42:19.161Z,98689.03
2023-04-11T15:44:45.766Z,98686.81
2023-04-11T15:47:12.613Z,98695.16
2023-04-11T15:49:40.504Z,98697.41
2023-04-11T15:52:07.111Z,98695.47
2023-04-11T15:54:33.705Z,98692.69
2023-04-11T15:57:04.749Z,98686.22
2023-04-11T15:59:31.321Z,98694.72
2023-04-11T16:01:58.138Z,98697.69
2023-04-11T16:04:25.093Z,98689.91
2023-04-11T16:06:53.020Z,98691.44
2023-04-11T16:09:19.604Z,98695.50
2023-04-11T16:11:46.208Z,98698.25
2023-04-11T16:14:12.809Z,98703.09
2023-04-11T16:16:39.514Z,98700.72
2023-04-11T16:19:06.312Z,98695.22
2023-04-11T16:21:32.914Z,98695.66
2023-04-11T16:24:00.903Z,98702.31
2023-04-11T16:26:27.521Z,98695.03
2023-04-11T16:28:54.044Z,98693.34
2023-04-11T16:31:20.614Z,98699.66
2023-04-11T16:33:47.222Z,98693.50
2023-04-11T16:36:13.803Z,98697.75
2023-04-11T16:38:40.369Z,98701.97
2023-04-11T16:41:08.373Z,98687.47
2023-04-11T16:43:34.946Z,98695.97
2023-04-11T16:46:01.523Z,98703.84
2023-04-11T16:48:28.088Z,98704.22
2023-04-11T16:50:54.664Z,98692.25
2023-04-11T16:53:21.222Z,98692.66
2023-04-11T16:55:47.992Z,98708.03
2023-04-11T16:58:16.060Z,98693.06
2023-04-11T17:00:42.758Z,98690.25
2023-04-11T17:03:09.487Z,98684.88
2023-04-11T17:05:36.257Z,98679.88
2023-04-11T17:08:02.914Z,98685.91
2023-04-11T17:10:29.594Z,98682.25
2023-04-11T17:12:57.963Z,98670.34
2023-04-11T17:15:25.931Z,98676.84
2023-04-11T17:17:52.545Z,98675.78
2023-04-11T17:20:19.163Z,98680.31
2023-04-11T17:22:45.718Z,98679.28
2023-04-11T17:25:12.389Z,98677.28
2023-04-11T17:27:39.920Z,98685.09
2023-04-11T17:30:07.658Z,98686.09
2023-04-11T17:32:36.125Z,98685.59
2023-04-11T17:35:04.589Z,98688.25
2023-04-11T17:37:31.147Z,98693.06
2023-04-11T17:39:57.743Z,98691.06
2023-04-11T17:42:24.333Z,98693.41
2023-04-11T17:44:50.986Z,98691.09
2023-04-11T17:47:17.572Z,98697.31
2023-04-11T17:49:45.437Z,98699.97
2023-04-11T17:52:12.332Z,98701.78
2023-04-11T17:54:38.937Z,98704.13
2023-04-11T17:57:05.469Z,98700.53
2023-04-11T17:59:32.027Z,98694.31
2023-04-11T18:01:58.740Z,98699.22
2023-04-11T18:04:25.496Z,98703.22
2023-04-11T18:06:53.503Z,98707.88
2023-04-11T18:09:20.098Z,98702.78
2023-04-11T18:11:46.631Z,98707.88
2023-04-11T18:14:13.214Z,98701.63
2023-04-11T18:16:39.800Z,98706.50
2023-04-11T18:19:06.400Z,98711.28
2023-04-11T18:21:32.973Z,98707.53
2023-04-11T18:24:00.864Z,98716.91
2023-04-11T18:26:27.460Z,98720.22
2023-04-11T18:28:54.067Z,98723.38
2023-04-11T18:31:20.628Z,98720.06
2023-04-11T18:33:48.154Z,98720.72
2023-04-11T18:36:15.058Z,98716.56
2023-04-11T18:38:41.584Z,98725.50
2023-04-11T18:41:09.813Z,98721.81
2023-04-11T18:43:38.478Z,98727.78
2023-04-11T18:46:05.565Z,98737.31
2023-04-11T18:48:32.190Z,98733.56
2023-04-11T18:50:59.611Z,98740.53
2023-04-11T18:53:26.232Z,98740.59
2023-04-11T18:55:52.771Z,98740.91
2023-04-11T18:58:23.692Z,98738.38
2023-04-11T19:00:51.371Z,98731.56
2023-04-11T19:03:18.106Z,98729.22
2023-04-11T19:05:45.222Z,98735.28
2023-04-11T19:08:12.136Z,98739.28
2023-04-11T19:10:38.750Z,98735.59
2023-04-11T19:13:05.944Z,98736.75
2023-04-11T19:15:34.500Z,98741.19
2023-04-11T19:18:01.096Z,98738.28
2023-04-11T19:20:28.160Z,98741.63
2023-04-11T19:22:54.721Z,98735.53
2023-04-11T19:25:21.278Z,98732.00
2023-04-11T19:27:47.802Z,98732.00
2023-04-11T19:30:14.555Z,98727.66
2023-04-11T19:32:42.557Z,98720.47
2023-04-11T19:35:10.707Z,98717.06
2023-04-11T19:37:38.240Z,98719.22
2023-04-11T19:40:05.744Z,98718.59
2023-04-11T19:42:32.431Z,98715.84
2023-04-11T19:44:59.055Z,98724.41
2023-04-11T19:47:25.682Z,98723.56
2023-04-11T19:49:53.712Z,98714.00
2023-04-11T19:52:20.253Z,98708.34
2023-04-11T19:54:46.876Z,98707.06
2023-04-11T19:57:13.408Z,98700.41
2023-04-11T19:59:39.916Z,98698.09
2023-04-11T20:02:06.507Z,98694.25
2023-04-11T20:04:33.054Z,98687.88
2023-04-11T20:07:06.588Z,98691.28
2023-04-11T20:09:33.133Z,98686.22
2023-04-11T20:11:59.801Z,98690.91
2023-04-11T20:14:26.340Z,98682.13
2023-04-11T20:16:52.917Z,98686.16
2023-04-11T20:19:20.074Z,98679.91
2023-04-11T20:21:46.661Z,98682.50
2023-04-11T20:24:14.607Z,98682.72
2023-04-11T20:26:41.231Z,98678.97
2023-04-11T20:29:07.791Z,98676.50
2023-04-11T20:31:34.313Z,98664.09
2023-04-11T20:34:00.820Z,98666.50
2023-04-11T20:36:28.736Z,98668.22
2023-04-11T20:38:55.299Z,98669.09
2023-04-11T20:41:23.179Z,98675.59
2023-04-11T20:43:49.792Z,98664.81
2023-04-11T20:46:16.371Z,98658.91
2023-04-11T20:48:43.140Z,98659.53
2023-04-11T20:51:09.728Z,98650.25
2023-04-11T20:53:36.298Z,98656.03
2023-04-11T20:56:02.965Z,98648.84
2023-04-11T20:58:30.907Z,98644.63
2023-04-11T21:00:57.500Z,98646.63
2023-04-11T21:03:24.099Z,98641.16
2023-04-11T21:05:50.835Z,98636.22
2023-04-11T21:08:17.420Z,98628.03
2023-04-11T21:10:43.935Z,98632.72
2023-04-11T21:13:10.493Z,98634.69
2023-04-11T21:15:38.448Z,98633.13
2023-04-11T21:18:07.324Z,98627.13
2023-04-11T21:20:34.056Z,98622.03
2023-04-11T21:23:00.679Z,98621.34
2023-04-11T21:25:27.255Z,98619.22
2023-04-11T21:27:53.859Z,98615.75
2023-04-11T21:30:20.501Z,98620.66
2023-04-11T21:32:48.436Z,98617.44
2023-04-11T21:35:15.045Z,98609.16
2023-04-11T21:37:41.622Z,98611.66
2023-04-11T21:40:08.974Z,98614.63
2023-04-11T21:42:35.696Z,98608.22
2023-04-11T21:45:02.287Z,98610.91
2023-04-11T21:47:28.873Z,98609.03
2023-04-11T21:49:56.872Z,98594.25
2023-04-11T21:52:23.397Z,98592.69
2023-04-11T21:54:50.004Z,98595.66
2023-04-11T21:57:16.561Z,98579.81
2023-04-11T21:59:43.146Z,98582.72
2023-04-11T22:02:09.804Z,98588.88
2023-04-11T22:04:44.344Z,98580.53
2023-04-11T22:07:19.432Z,98576.16
2023-04-11T22:09:46.020Z,98573.25
2023-04-11T22:12:14.358Z,98559.78
2023-04-11T22:14:40.915Z,98557.59
2023-04-11T22:17:07.488Z,98562.41
2023-04-11T22:19:34.095Z,98567.69
2023-04-11T22:22:00.613Z,98554.53
2023-04-11T22:24:28.721Z,98554.03
2023-04-11T22:26:55.237Z,98554.03
2023-04-11T22:29:21.774Z,98554.34
2023-04-11T22:31:48.322Z,98550.22
2023-04-11T22:34:14.940Z,98541.06
2023-04-11T22:36:41.441Z,98542.97
2023-04-11T22:39:08.342Z,98538.38
2023-04-11T22:41:36.523Z,98537.56
2023-04-11T22:44:03.140Z,98539.19
2023-04-11T22:46:30.692Z,98521.94
2023-04-11T22:48:57.268Z,98525.44
2023-04-11T22:51:25.251Z,98515.16
2023-04-11T22:53:51.800Z,98517.34
2023-04-11T22:56:18.576Z,98513.78
2023-04-11T22:58:46.438Z,98514.88
2023-04-11T23:01:13.377Z,98507.91
2023-04-11T23:03:40.173Z,98509.50
2023-04-11T23:06:07.505Z,98508.41
2023-04-11T23:08:34.277Z,98504.91
2023-04-11T23:11:00.792Z,98488.75
2023-04-11T23:13:27.370Z,98491.91
2023-04-11T23:15:55.285Z,98489.75
2023-04-11T23:18:21.847Z,98489.44
2023-04-11T23:20:48.464Z,98493.44
2023-04-11T23:23:15.136Z,98493.72
2023-04-11T23:25:41.689Z,98491.53
2023-04-11T23:28:08.349Z,98490.94
2023-04-11T23:30:35.402Z,98488.25
2023-04-11T23:33:04.434Z,98484.28
2023-04-11T23:35:31.134Z,98474.59
2023-04-11T23:37:57.731Z,98468.13
2023-04-11T23:40:24.208Z,98461.94
2023-04-11T23:42:50.757Z,98459.03
2023-04-11T23:45:17.311Z,98456.84
2023-04-11T23:47:43.866Z,98451.16
2023-04-11T23:50:12.120Z,98452.44
2023-04-11T23:52:38.705Z,98444.88
2023-04-11T23:55:06.345Z,98439.50
2023-04-11T23:57:32.915Z,98426.41
2023-04-11T23:59:59.530Z,98421.81
